createdAt,value
2019-05-10T00:01:15.322Z,8.51
2019-05-10T00:06:22.930Z,9.35
2019-05-10T00:11:30.557Z,9.27
2019-05-10T00:16:38.159Z,9.45
2019-05-10T00:21:45.831Z,8.87
2019-05-10T00:26:53.449Z,9.83
2019-05-10T00:32:02.013Z,9.05
2019-05-10T00:37:09.640Z,9.26
2019-05-10T00:42:17.896Z,10.28
2019-05-10T00:47:25.520Z,9.14
2019-05-10T00:52:33.283Z,9.50
2019-05-10T00:57:40.895Z,11.65
2019-05-10T01:02:48.733Z,12.23
2019-05-10T01:07:56.335Z,11.57
2019-05-10T01:13:05.289Z,12.34
2019-05-10T01:18:12.956Z,14.48
2019-05-10T01:23:20.580Z,15.09
2019-05-10T01:28:28.185Z,16.86
2019-05-10T01:33:35.818Z,18.82
2019-05-10T01:38:43.488Z,24.64
2019-05-10T01:43:51.124Z,19.85
2019-05-10T01:48:58.805Z,20.36
2019-05-10T01:54:06.594Z,22.61
2019-05-10T01:59:14.207Z,29.28
2019-05-10T02:04:21.901Z,29.69
2019-05-10T02:09:33.060Z,31.48
2019-05-10T02:14:36.815Z,26.18
2019-05-10T02:19:44.410Z,29.55
2019-05-10T02:24:52.172Z,31.56
2019-05-10T02:29:59.829Z,41.80
2019-05-10T02:35:07.501Z,32.26
2019-05-10T02:40:15.148Z,34.27
2019-05-10T02:45:22.777Z,35.15
2019-05-10T02:50:30.436Z,36.73
2019-05-10T02:55:39.544Z,45.78
2019-05-10T03:00:46.137Z,35.43
2019-05-10T03:05:53.769Z,34.46
2019-05-10T03:11:01.513Z,34.37
2019-05-10T03:16:09.153Z,35.52
2019-05-10T03:21:16.794Z,36.17
2019-05-10T03:26:24.483Z,36.30
2019-05-10T03:31:32.126Z,36.67
2019-05-10T03:36:39.798Z,38.16
2019-05-10T03:41:47.461Z,37.21
2019-05-10T03:46:55.211Z,37.33
2019-05-10T03:52:02.995Z,46.41
2019-05-10T03:57:13.702Z,33.02
2019-05-10T04:02:17.877Z,31.49
2019-05-10T04:07:25.521Z,31.92
2019-05-10T04:12:33.189Z,31.74
2019-05-10T04:17:40.800Z,30.91
2019-05-10T04:22:49.112Z,39.72
2019-05-10T04:27:56.720Z,38.07
2019-05-10T04:33:04.407Z,29.99
2019-05-10T04:38:13.088Z,28.99
2019-05-10T04:43:20.917Z,36.89
2019-05-10T04:48:28.713Z,34.73
2019-05-10T04:53:37.545Z,25.41
2019-05-10T04:58:45.200Z,25.12
2019-05-10T05:03:52.840Z,25.85
2019-05-10T05:09:00.464Z,26.42
2019-05-10T05:14:09.682Z,23.44
2019-05-10T05:19:15.295Z,25.10
2019-05-10T05:24:24.397Z,23.90
2019-05-10T05:29:30.256Z,22.99
2019-05-10T05:34:37.920Z,22.68
2019-05-10T05:39:45.570Z,21.78
2019-05-10T05:44:53.210Z,21.42
2019-05-10T05:50:00.836Z,20.72
2019-05-10T05:55:08.492Z,19.22
2019-05-10T06:00:16.154Z,15.52
2019-05-10T06:05:34.105Z,12.74
2019-05-10T06:10:30.983Z,11.79
2019-05-10T06:15:44.161Z,11.22
2019-05-10T06:20:44.474Z,9.74
2019-05-10T06:25:48.936Z,7.48
2019-05-10T06:30:56.616Z,6.36
2019-05-10T06:36:04.279Z,5.36
2019-05-10T06:41:17.111Z,4.84
2019-05-10T06:46:23.714Z,4.55
2019-05-10T06:51:26.284Z,4.98
2019-05-10T06:56:33.940Z,4.66
2019-05-10T07:01:45.918Z,5.29
2019-05-10T07:06:49.229Z,5.54
2019-05-10T07:11:56.853Z,5.34
2019-05-10T07:17:05.344Z,5.64
2019-05-10T07:22:12.983Z,5.15
2019-05-10T07:27:20.643Z,5.23
2019-05-10T07:32:28.255Z,5.23
2019-05-10T07:37:35.888Z,5.23
2019-05-10T07:42:45.669Z,5.43
2019-05-10T07:47:50.724Z,5.91
2019-05-10T07:52:58.336Z,6.58
2019-05-10T07:58:07.108Z,7.33
2019-05-10T08:03:16.766Z,7.21
2019-05-10T08:08:20.345Z,6.20
2019-05-10T08:13:28.513Z,6.44
2019-05-10T08:18:35.228Z,6.67
2019-05-10T08:23:43.838Z,8.39
2019-05-10T08:28:52.409Z,7.72
2019-05-10T08:33:58.787Z,6.77
2019-05-10T08:39:10.422Z,7.66
2019-05-10T08:44:19.288Z,9.52
2019-05-10T08:49:22.005Z,7.06
2019-05-10T08:54:26.603Z,4.87
2019-05-10T08:59:33.926Z,4.30
2019-05-10T09:04:42.797Z,4.79
2019-05-10T09:09:50.137Z,5.06
2019-05-10T09:15:05.819Z,5.61
2019-05-10T09:20:02.642Z,5.73
2019-05-10T09:25:09.135Z,6.04
2019-05-10T09:30:18.596Z,6.26
2019-05-10T09:35:23.973Z,6.30
2019-05-10T09:40:32.782Z,6.55
2019-05-10T09:45:38.787Z,6.22
2019-05-10T09:50:47.057Z,6.62
2019-05-10T09:56:01.717Z,6.22
2019-05-10T10:01:13.750Z,6.52
2019-05-10T10:06:10.998Z,6.43
2019-05-10T10:11:16.386Z,6.78
2019-05-10T10:16:22.164Z,6.15
2019-05-10T10:21:35.094Z,6.66
2019-05-10T10:26:37.850Z,6.26
2019-05-10T10:31:50.897Z,5.25
2019-05-10T10:36:51.196Z,6.01
2019-05-10T10:42:02.401Z,5.74
2019-05-10T10:47:08.067Z,6.82
2019-05-10T10:52:13.629Z,9.57
2019-05-10T10:57:20.628Z,12.08
2019-05-10T11:02:33.339Z,13.34
2019-05-10T11:07:36.583Z,13.35
2019-05-10T11:12:42.992Z,13.66
2019-05-10T11:17:50.745Z,11.25
2019-05-10T11:22:58.338Z,11.82
2019-05-10T11:28:09.048Z,12.82
2019-05-10T11:33:26.087Z,13.17
2019-05-10T11:38:21.477Z,11.89
2019-05-10T11:43:27.900Z,9.39
2019-05-10T11:48:37.721Z,10.61
2019-05-10T11:53:42.953Z,10.21
2019-05-10T11:58:55.176Z,12.57
2019-05-10T12:03:57.924Z,10.90
2019-05-10T12:09:05.677Z,10.81
2019-05-10T12:14:17.514Z,11.25
2019-05-10T12:19:20.549Z,10.98
2019-05-10T12:24:39.000Z,9.71
2019-05-10T12:29:31.638Z,8.95
2019-05-10T12:34:37.123Z,11.24
2019-05-10T12:39:44.793Z,11.72
2019-05-10T12:44:55.433Z,12.55
2019-05-10T12:50:02.114Z,11.25
2019-05-10T12:55:07.015Z,9.72
2019-05-10T13:00:17.629Z,9.02
2019-05-10T13:05:15.830Z,8.32
2019-05-10T13:10:22.502Z,8.07
2019-05-10T13:15:33.551Z,8.29
2019-05-10T13:20:30.904Z,8.95
2019-05-10T13:25:37.750Z,8.36
2019-05-10T13:30:45.519Z,9.48
2019-05-10T13:35:56.502Z,7.26
2019-05-10T13:41:03.105Z,13.43
2019-05-10T13:46:00.785Z,12.87
2019-05-10T13:51:08.461Z,9.91
2019-05-10T13:56:16.133Z,10.16
2019-05-10T14:01:23.760Z,8.83
2019-05-10T14:06:33.285Z,8.52
2019-05-10T14:11:44.199Z,5.84
2019-05-10T14:16:48.122Z,7.09
2019-05-10T14:21:59.770Z,5.81
2019-05-10T14:26:59.253Z,5.48
2019-05-10T14:32:04.585Z,5.10
2019-05-10T14:37:14.340Z,4.94
2019-05-10T14:42:23.958Z,5.11
2019-05-10T14:47:26.590Z,4.64
2019-05-10T14:52:34.213Z,4.79
2019-05-10T14:57:41.861Z,4.68
2019-05-10T15:02:49.449Z,4.33
2019-05-10T15:07:57.121Z,4.35
2019-05-10T15:13:04.737Z,4.45
2019-05-10T15:18:12.365Z,5.04
2019-05-10T15:23:19.979Z,5.94
2019-05-10T15:28:34.080Z,4.80
2019-05-10T15:33:34.737Z,4.66
2019-05-10T15:38:50.025Z,5.63
2019-05-10T15:43:53.431Z,5.16
2019-05-10T15:48:56.697Z,5.23
2019-05-10T15:54:07.014Z,4.68
2019-05-10T15:59:23.919Z,4.85
2019-05-10T16:04:18.653Z,5.29
2019-05-10T16:09:26.277Z,5.47
2019-05-10T16:14:39.260Z,6.41
2019-05-10T16:19:41.172Z,6.22
2019-05-10T16:24:48.774Z,8.07
2019-05-10T16:29:56.391Z,7.48
2019-05-10T16:35:05.875Z,8.45
2019-05-10T16:40:11.173Z,8.59
2019-05-10T16:45:18.765Z,8.29
2019-05-10T16:55:35.455Z,9.04
2019-05-10T17:00:46.050Z,8.86
2019-05-10T17:05:53.464Z,8.83
2019-05-10T17:10:55.448Z,8.96
2019-05-10T17:16:05.585Z,9.75
2019-05-10T17:21:03.441Z,9.98
2019-05-10T17:26:11.657Z,9.31
2019-05-10T17:31:19.550Z,9.07
2019-05-10T17:36:27.154Z,9.43
2019-05-10T17:41:34.800Z,9.01
2019-05-10T17:46:42.425Z,10.97
2019-05-10T17:51:50.088Z,9.84
2019-05-10T17:56:57.741Z,9.26
2019-05-10T18:02:05.365Z,9.66
2019-05-10T18:07:13.008Z,9.37
2019-05-10T18:12:24.116Z,10.09
2019-05-10T18:17:27.818Z,11.38
2019-05-10T18:22:43.300Z,12.33
2019-05-10T18:27:43.442Z,12.53
2019-05-10T18:32:51.049Z,12.45
2019-05-10T18:37:59.937Z,13.64
2019-05-10T18:43:06.022Z,11.56
2019-05-10T18:48:13.625Z,11.55
2019-05-10T18:53:21.232Z,11.96
2019-05-10T18:58:31.396Z,11.90
2019-05-10T19:03:36.012Z,11.82
2019-05-10T19:08:44.088Z,12.53
2019-05-10T19:13:54.013Z,12.29
2019-05-10T19:19:01.789Z,12.48
2019-05-10T19:24:05.313Z,13.42
2019-05-10T19:29:12.972Z,13.46
2019-05-10T19:34:20.589Z,11.74
2019-05-10T19:39:28.369Z,11.94
2019-05-10T19:44:40.351Z,17.96
2019-05-10T19:49:45.885Z,15.88
2019-05-10T19:54:50.464Z,15.33
2019-05-10T19:59:58.085Z,14.86
2019-05-10T20:05:05.729Z,14.26
2019-05-10T20:10:13.331Z,20.75
2019-05-10T20:15:20.995Z,19.59
2019-05-10T20:20:28.609Z,16.33
2019-05-10T20:25:36.221Z,17.77
2019-05-10T20:30:43.835Z,19.66
2019-05-10T20:35:51.436Z,21.25
2019-05-10T20:40:59.096Z,22.80
2019-05-10T20:46:07.269Z,22.47
2019-05-10T20:51:13.998Z,25.67
2019-05-10T20:56:21.616Z,27.81
2019-05-10T21:01:29.370Z,23.94
2019-05-10T21:06:37.013Z,29.02
2019-05-10T21:11:44.678Z,24.81
2019-05-10T21:16:52.284Z,25.24
2019-05-10T21:21:59.912Z,26.34
2019-05-10T21:27:07.504Z,33.24
2019-05-10T21:32:15.168Z,28.63
2019-05-10T21:37:22.788Z,28.47
2019-05-10T21:42:30.401Z,29.97
2019-05-10T21:47:50.687Z,30.50
2019-05-10T21:52:45.236Z,30.12
2019-05-10T21:57:52.897Z,29.28
2019-05-10T22:03:00.495Z,29.33
2019-05-10T22:08:08.158Z,29.72
2019-05-10T22:13:15.789Z,30.94
2019-05-10T22:18:29.765Z,31.46
2019-05-10T22:23:27.401Z,32.34
2019-05-10T22:28:34.990Z,41.10
2019-05-10T22:33:42.608Z,32.25
2019-05-10T22:39:05.775Z,31.66
2019-05-10T22:43:57.635Z,31.27
2019-05-10T22:49:05.285Z,32.65
2019-05-10T22:54:12.921Z,32.32
2019-05-10T22:59:20.564Z,31.63
2019-05-10T23:04:28.197Z,32.08
2019-05-10T23:14:43.656Z,33.66
2019-05-10T23:19:51.250Z,32.54
2019-05-10T23:24:58.908Z,33.55
2019-05-10T23:30:06.695Z,41.54
2019-05-10T23:35:14.296Z,43.27
2019-05-10T23:40:21.946Z,41.33
2019-05-10T23:45:32.513Z,40.14
2019-05-10T23:50:30.198Z,41.74
2019-05-10T23:55:37.796Z,42.76
